Time;durP1;ratioP1;P1;durP2;ratioP2;P2;SDS_P1;SDS_P2;PMS_P1;PMS_P2;Temp;Humidity;BMP_temperature;BMP_pressure;BME280_temperature;BME280_humidity;BME280_pressure;Samples;Min_cycle;Max_cycle;Signal;HPM_P1;HPM_P2
2021/08/25 00:00:58;;;;;;;1.23;0.50;;;15.10;72.80;;;;;;5071545;28;20028;-76
2021/08/25 00:03:26;;;;;;;2.03;0.45;;;15.10;72.50;;;;;;5053729;28;20021;-71
2021/08/25 00:05:54;;;;;;;1.88;0.60;;;15.20;72.40;;;;;;5067619;28;20363;-68
2021/08/25 00:08:21;;;;;;;0.65;0.25;;;15.20;72.10;;;;;;5070710;28;20028;-70
2021/08/25 00:10:49;;;;;;;1.65;0.40;;;15.30;72.70;;;;;;5072041;28;20323;-70
2021/08/25 00:13:20;;;;;;;0.82;0.40;;;15.30;72.30;;;;;;5071973;28;20029;-71
2021/08/25 00:15:47;;;;;;;3.95;1.27;;;15.30;71.70;;;;;;5071617;28;20041;-69
2021/08/25 00:18:15;;;;;;;0.57;0.30;;;15.40;72.10;;;;;;5073726;28;20035;-69
2021/08/25 00:20:42;;;;;;;0.93;0.60;;;15.40;71.70;;;;;;5075877;28;20054;-65
2021/08/25 00:23:13;;;;;;;1.25;0.40;;;15.40;71.40;;;;;;5075861;28;20036;-68
2021/08/25 00:25:40;;;;;;;2.78;0.40;;;15.40;71.40;;;;;;5068371;28;20036;-67
2021/08/25 00:28:08;;;;;;;1.02;0.55;;;15.50;71.80;;;;;;5071224;28;20028;-70
2021/08/25 00:30:43;;;;;;;1.35;0.57;;;15.50;71.30;;;;;;5076480;28;20074;-69
2021/08/25 00:33:10;;;;;;;0.82;0.30;;;15.50;71.30;;;;;;5072317;28;20040;-69
2021/08/25 00:35:38;;;;;;;1.30;0.45;;;15.50;71.80;;;;;;5067021;28;20044;-70
2021/08/25 00:38:06;;;;;;;0.77;0.45;;;15.60;71.20;;;;;;5075554;28;20020;-64
2021/08/25 00:40:33;;;;;;;1.52;0.25;;;15.60;71.60;;;;;;5074945;28;20431;-64
2021/08/25 00:43:11;;;;;;;1.67;0.30;;;15.60;71.50;;;;;;5075240;28;20021;-69
2021/08/25 00:45:43;;;;;;;1.13;0.70;;;15.60;71.60;;;;;;5067991;28;20124;-73
2021/08/25 00:48:17;;;;;;;1.67;0.40;;;15.70;71.70;;;;;;5073187;28;20036;-72
2021/08/25 00:50:51;;;;;;;1.08;0.40;;;15.70;71.00;;;;;;5075895;28;20020;-66
2021/08/25 00:53:24;;;;;;;1.20;0.45;;;15.80;71.00;;;;;;5073674;28;20033;-68
2021/08/25 00:55:55;;;;;;;3.42;0.52;;;15.80;70.90;;;;;;5070446;28;20390;-70
2021/08/25 00:58:32;;;;;;;0.30;0.22;;;15.90;71.40;;;;;;5074185;28;20046;-70
2021/08/25 01:01:03;;;;;;;1.85;0.57;;;16.00;70.60;;;;;;5075177;28;20036;-62
2021/08/25 01:03:40;;;;;;;3.50;0.40;;;16.10;70.60;;;;;;5075427;28;20024;-69
2021/08/25 01:06:08;;;;;;;1.20;0.30;;;16.10;70.40;;;;;;5070431;28;20051;-64
2021/08/25 01:08:37;;;;;;;0.70;0.30;;;16.20;70.50;;;;;;5073733;28;20481;-64
2021/08/25 01:11:19;;;;;;;0.73;0.50;;;16.30;69.80;;;;;;5074555;28;20020;-70
2021/08/25 01:13:46;;;;;;;1.67;0.40;;;16.40;69.90;;;;;;5070597;28;20025;-74
2021/08/25 01:16:14;;;;;;;0.73;0.40;;;16.50;69.10;;;;;;5070017;28;20371;-72
2021/08/25 01:18:45;;;;;;;2.90;0.70;;;16.50;68.70;;;;;;5074597;28;20085;-63
2021/08/25 01:21:12;;;;;;;1.15;0.40;;;16.60;67.50;;;;;;5072951;28;20502;-64
2021/08/25 01:23:45;;;;;;;0.70;0.40;;;16.60;67.10;;;;;;5073960;28;20021;-65
2021/08/25 01:26:16;;;;;;;1.00;0.40;;;16.60;67.90;;;;;;5069938;28;20033;-69
2021/08/25 01:28:51;;;;;;;1.38;0.40;;;16.60;67.00;;;;;;5073488;28;20027;-71
2021/08/25 01:31:21;;;;;;;1.38;0.38;;;16.60;66.90;;;;;;5074401;28;20028;-66
2021/08/25 01:33:48;;;;;;;0.60;0.38;;;16.60;67.50;;;;;;5074235;28;20020;-67
2021/08/25 01:36:19;;;;;;;0.77;0.30;;;16.70;68.20;;;;;;5069229;28;20032;-62
2021/08/25 01:38:55;;;;;;;1.30;0.40;;;16.70;68.20;;;;;;5073532;28;20482;-71
2021/08/25 01:41:26;;;;;;;1.75;0.50;;;16.80;67.60;;;;;;5070654;28;20382;-73
2021/08/25 01:43:55;;;;;;;2.83;0.60;;;16.80;67.70;;;;;;5073962;28;20024;-65
2021/08/25 01:46:29;;;;;;;1.35;0.43;;;16.90;67.10;;;;;;5069259;28;20026;-69
2021/08/25 01:48:59;;;;;;;4.40;0.52;;;16.90;67.60;;;;;;5070446;28;20025;-68
2021/08/25 01:51:30;;;;;;;0.57;0.30;;;16.90;66.60;;;;;;5074173;28;20379;-67
2021/08/25 01:54:00;;;;;;;1.23;0.40;;;17.00;67.00;;;;;;5073430;28;20099;-62
2021/08/25 01:56:28;;;;;;;1.27;0.35;;;17.10;67.30;;;;;;5068563;28;20101;-66
2021/08/25 01:58:59;;;;;;;0.73;0.55;;;17.10;67.20;;;;;;5072300;28;20016;-71
2021/08/25 02:01:26;;;;;;;0.52;0.30;;;17.10;66.70;;;;;;5073605;28;20031;-67
2021/08/25 02:03:54;;;;;;;0.70;0.28;;;17.20;66.40;;;;;;5073731;28;20691;-67
2021/08/25 02:06:21;;;;;;;1.08;0.45;;;17.20;66.40;;;;;;5068224;28;20031;-69
2021/08/25 02:08:48;;;;;;;1.27;0.55;;;17.30;66.20;;;;;;5073177;28;20023;-69
2021/08/25 02:11:16;;;;;;;2.05;0.20;;;17.30;65.80;;;;;;5073482;28;20033;-70
2021/08/25 02:13:43;;;;;;;4.20;0.45;;;17.40;66.50;;;;;;5073416;28;20020;-68
2021/08/25 02:16:11;;;;;;;1.70;0.52;;;17.40;65.90;;;;;;5067805;28;20029;-69
2021/08/25 02:18:38;;;;;;;1.73;0.68;;;17.40;65.40;;;;;;5072247;28;20016;-70
2021/08/25 02:21:06;;;;;;;1.67;0.45;;;17.50;65.60;;;;;;5073337;28;20024;-62
2021/08/25 02:23:33;;;;;;;0.63;0.38;;;17.50;64.90;;;;;;5073422;28;20028;-67
2021/08/25 02:26:01;;;;;;;0.85;0.35;;;17.60;65.60;;;;;;5067149;28;20043;-70
2021/08/25 02:28:28;;;;;;;1.00;0.63;;;17.60;65.50;;;;;;5072500;28;20089;-65
2021/08/25 02:30:56;;;;;;;0.68;0.32;;;17.60;65.70;;;;;;5074132;28;20029;-73
2021/08/25 02:33:23;;;;;;;1.20;0.30;;;17.60;65.50;;;;;;5073932;28;20360;-71
2021/08/25 02:35:51;;;;;;;0.70;0.20;;;17.70;63.90;;;;;;5067840;28;20044;-66
2021/08/25 02:38:18;;;;;;;5.25;0.63;;;17.70;64.10;;;;;;5071703;28;20055;-65
2021/08/25 02:41:15;;;;;;;1.25;0.47;;;17.80;65.10;;;;;;5073368;28;20029;-64
2021/08/25 02:43:52;;;;;;;3.17;0.30;;;17.70;64.30;;;;;;5069984;28;20039;-70
2021/08/25 02:46:20;;;;;;;0.98;0.50;;;17.80;63.90;;;;;;5068124;28;20070;-61
2021/08/25 02:48:49;;;;;;;2.95;1.27;;;17.80;64.50;;;;;;5072761;28;20101;-68
2021/08/25 02:51:16;;;;;;;0.75;0.45;;;17.70;63.90;;;;;;5073185;28;20490;-71
2021/08/25 02:53:44;;;;;;;3.60;0.40;;;17.70;64.40;;;;;;5072745;28;20032;-68
2021/08/25 02:56:12;;;;;;;0.90;0.40;;;17.70;64.10;;;;;;5067852;28;20077;-68
2021/08/25 02:58:39;;;;;;;1.65;0.45;;;17.60;64.70;;;;;;5072230;28;20020;-69
2021/08/25 03:01:07;;;;;;;2.15;0.75;;;17.60;65.00;;;;;;5073417;28;20036;-71
2021/08/25 03:03:34;;;;;;;0.28;0.20;;;17.50;63.60;;;;;;5073012;28;20048;-67
2021/08/25 03:06:02;;;;;;;0.50;0.30;;;17.50;65.50;;;;;;5070288;28;20450;-73
2021/08/25 03:08:29;;;;;;;0.55;0.30;;;17.50;65.50;;;;;;5076988;28;20432;-66
2021/08/25 03:10:57;;;;;;;0.85;0.35;;;17.40;65.90;;;;;;5075896;28;20025;-70
2021/08/25 03:13:24;;;;;;;0.95;0.40;;;17.40;66.00;;;;;;5079335;28;20016;-74
2021/08/25 03:15:51;;;;;;;0.80;0.30;;;17.40;65.30;;;;;;5078770;28;20043;-71
2021/08/25 03:18:19;;;;;;;0.40;0.30;;;17.30;66.10;;;;;;5078195;28;20051;-69
2021/08/25 03:20:47;;;;;;;4.25;0.70;;;17.30;66.80;;;;;;5078470;28;20035;-70
2021/08/25 03:23:14;;;;;;;0.77;0.30;;;17.30;65.80;;;;;;5075885;28;20454;-74
2021/08/25 03:25:41;;;;;;;0.77;0.40;;;17.20;66.70;;;;;;5075288;28;20048;-67
2021/08/25 03:28:09;;;;;;;0.50;0.32;;;17.20;65.10;;;;;;5072366;28;20025;-67
2021/08/25 03:30:36;;;;;;;1.35;0.30;;;17.20;66.70;;;;;;5070660;28;20432;-70
2021/08/25 03:33:07;;;;;;;1.02;0.52;;;17.20;66.60;;;;;;5062505;28;20052;-69
2021/08/25 03:35:35;;;;;;;0.47;0.28;;;17.20;66.60;;;;;;5067918;28;20551;-71
2021/08/25 03:38:02;;;;;;;1.45;0.50;;;17.20;65.80;;;;;;5067232;28;20033;-65
2021/08/25 03:40:30;;;;;;;3.45;0.30;;;17.10;66.10;;;;;;5066299;28;20017;-65
2021/08/25 03:43:13;;;;;;;2.15;0.60;;;17.10;66.50;;;;;;5067873;28;20020;-66
2021/08/25 03:45:41;;;;;;;1.73;0.45;;;17.10;67.20;;;;;;5067654;28;20036;-66
2021/08/25 03:48:08;;;;;;;0.32;0.20;;;17.20;67.10;;;;;;5067039;28;20031;-67
2021/08/25 03:50:36;;;;;;;1.08;0.50;;;17.20;67.50;;;;;;5068245;28;20017;-66
2021/08/25 03:53:04;;;;;;;1.45;0.68;;;17.20;68.40;;;;;;5067849;28;20017;-66
2021/08/25 03:55:34;;;;;;;0.95;0.60;;;17.20;67.60;;;;;;5067662;28;21169;-67
2021/08/25 03:58:01;;;;;;;1.77;0.88;;;17.20;68.40;;;;;;5067716;28;20028;-67
2021/08/25 04:00:29;;;;;;;1.17;0.52;;;17.20;68.10;;;;;;5067630;28;20016;-66
2021/08/25 04:02:56;;;;;;;1.00;0.60;;;17.20;67.30;;;;;;5067675;28;20062;-66
2021/08/25 04:05:24;;;;;;;1.60;0.98;;;17.20;66.90;;;;;;5063815;28;20021;-69
2021/08/25 04:07:51;;;;;;;1.05;0.57;;;17.30;66.50;;;;;;5070973;28;20166;-69
2021/08/25 04:10:19;;;;;;;1.48;1.20;;;17.30;66.70;;;;;;5072464;28;20065;-70
2021/08/25 04:12:46;;;;;;;1.23;0.60;;;17.20;67.60;;;;;;5072759;28;20020;-71
2021/08/25 04:15:14;;;;;;;3.08;0.60;;;17.20;67.30;;;;;;5072672;28;20120;-68
2021/08/25 04:18:07;;;;;;;1.35;0.98;;;17.30;68.00;;;;;;5062819;28;20459;-65
2021/08/25 04:20:35;;;;;;;1.08;0.88;;;17.20;67.60;;;;;;5064367;28;20032;-68
2021/08/25 04:23:03;;;;;;;4.25;2.10;;;17.30;67.80;;;;;;5072149;28;20029;-67
2021/08/25 04:25:30;;;;;;;6.25;3.50;;;17.30;67.10;;;;;;5069953;28;20021;-66
2021/08/25 04:27:58;;;;;;;17.95;10.60;;;17.30;67.60;;;;;;5069233;28;20028;-71
2021/08/25 04:30:26;;;;;;;26.02;15.80;;;17.30;67.30;;;;;;5069237;28;20028;-66
2021/08/25 04:32:57;;;;;;;26.35;14.20;;;17.30;66.70;;;;;;5072966;28;20171;-62
2021/08/25 04:35:25;;;;;;;22.13;15.00;;;17.30;67.70;;;;;;5074091;28;20113;-69
2021/08/25 04:40:50;;;;;;;39.65;23.83;;;17.30;67.90;;;;;;5071224;28;20063;-69
2021/08/25 04:43:17;;;;;;;34.38;19.77;;;17.30;67.60;;;;;;5071334;28;20017;-69
2021/08/25 04:45:45;;;;;;;37.90;23.20;;;17.30;68.40;;;;;;5071977;28;20024;-68
2021/08/25 04:48:12;;;;;;;37.47;22.08;;;17.30;67.80;;;;;;5065644;28;20016;-71
2021/08/25 04:50:40;;;;;;;34.60;22.10;;;17.30;67.70;;;;;;5071317;28;20024;-72
2021/08/25 04:53:07;;;;;;;38.47;22.38;;;17.30;67.50;;;;;;5054446;28;20040;-72
2021/08/25 04:55:37;;;;;;;36.72;23.40;;;17.30;68.10;;;;;;5072565;28;20043;-73
2021/08/25 04:58:05;;;;;;;31.67;19.73;;;17.30;68.20;;;;;;5066197;28;20017;-70
2021/08/25 05:00:33;;;;;;;36.00;21.42;;;17.30;67.50;;;;;;5072989;28;20027;-67
2021/08/25 05:03:01;;;;;;;39.00;23.90;;;17.30;67.50;;;;;;5075558;28;20105;-70
2021/08/25 05:05:28;;;;;;;39.42;23.95;;;17.30;68.20;;;;;;5075197;28;20020;-67
2021/08/25 05:07:56;;;;;;;37.17;23.63;;;17.30;68.10;;;;;;5070001;28;20455;-69
2021/08/25 05:10:23;;;;;;;38.53;24.42;;;17.30;67.40;;;;;;5070963;28;20033;-66
2021/08/25 05:12:53;;;;;;;39.60;23.08;;;17.30;67.20;;;;;;5076184;28;20416;-65
2021/08/25 05:15:21;;;;;;;32.60;22.02;;;17.30;68.10;;;;;;5075523;28;20091;-64
2021/08/25 05:17:48;;;;;;;33.08;21.67;;;17.30;67.50;;;;;;5075579;28;20055;-65
2021/08/25 05:20:16;;;;;;;33.88;22.13;;;17.30;68.30;;;;;;5076327;28;20028;-66
2021/08/25 05:22:44;;;;;;;32.63;21.48;;;17.30;68.20;;;;;;5075754;28;20033;-67
2021/08/25 05:25:11;;;;;;;37.28;24.23;;;17.20;67.30;;;;;;5058153;28;20122;-65
2021/08/25 05:27:38;;;;;;;36.55;23.83;;;17.30;68.50;;;;;;5074472;28;20016;-67
2021/08/25 05:30:06;;;;;;;31.77;20.65;;;17.20;68.30;;;;;;5075541;28;20036;-66
2021/08/25 05:32:34;;;;;;;36.58;20.92;;;17.20;67.00;;;;;;5057400;28;20055;-65
2021/08/25 05:35:01;;;;;;;37.22;22.50;;;17.20;67.50;;;;;;5074951;28;20024;-66
2021/08/25 05:37:28;;;;;;;35.17;21.77;;;17.20;68.00;;;;;;5074422;28;20029;-66
2021/08/25 05:39:56;;;;;;;35.95;22.27;;;17.10;67.80;;;;;;5074835;28;20173;-68
2021/08/25 05:42:23;;;;;;;39.25;23.70;;;17.10;68.50;;;;;;5075100;28;20082;-66
2021/08/25 05:44:50;;;;;;;37.35;23.67;;;17.10;68.80;;;;;;5075277;28;20031;-64
2021/08/25 05:47:18;;;;;;;28.23;16.90;;;17.10;68.80;;;;;;5075049;28;20537;-66
2021/08/25 05:49:45;;;;;;;32.55;21.13;;;17.10;64.00;;;;;;5067654;28;20031;-66
2021/08/25 05:52:13;;;;;;;35.88;21.23;;;17.10;68.10;;;;;;5068086;28;20074;-63
2021/08/25 05:54:40;;;;;;;33.78;21.50;;;17.10;69.00;;;;;;5069797;28;20029;-65
2021/08/25 05:57:07;;;;;;;35.72;22.25;;;17.10;69.10;;;;;;5070015;28;20116;-64
2021/08/25 05:59:35;;;;;;;31.35;21.75;;;17.10;68.70;;;;;;5070379;28;20021;-66
2021/08/25 06:02:02;;;;;;;33.38;19.75;;;17.10;69.20;;;;;;5069024;28;20039;-67
2021/08/25 06:04:30;;;;;;;30.17;19.65;;;17.10;68.80;;;;;;5068798;28;20674;-69
2021/08/25 06:06:57;;;;;;;36.25;22.65;;;17.10;68.70;;;;;;5069396;28;20032;-64
2021/08/25 06:09:25;;;;;;;27.73;19.48;;;17.10;69.60;;;;;;5069534;28;20024;-69
2021/08/25 06:11:52;;;;;;;31.20;20.55;;;17.00;69.10;;;;;;5068268;28;20620;-64
2021/08/25 06:14:24;;;;;;;33.00;20.58;;;17.10;69.20;;;;;;5069574;28;20468;-64
2021/08/25 06:16:51;;;;;;;33.93;21.07;;;17.00;69.50;;;;;;5068052;28;20052;-63
2021/08/25 06:19:18;;;;;;;37.08;21.45;;;17.00;69.10;;;;;;5068601;28;20043;-71
2021/08/25 06:21:47;;;;;;;32.28;20.23;;;17.00;69.50;;;;;;5069306;28;20028;-67
2021/08/25 06:24:14;;;;;;;31.63;21.08;;;17.00;69.60;;;;;;5067769;28;20040;-68
2021/08/25 06:26:43;;;;;;;36.25;20.77;;;17.00;69.00;;;;;;5069068;28;20037;-69
2021/08/25 06:29:10;;;;;;;33.33;19.90;;;17.00;69.20;;;;;;5068176;28;20033;-68
2021/08/25 06:31:38;;;;;;;29.00;20.85;;;17.00;69.40;;;;;;5069090;28;20200;-62
2021/08/25 06:34:05;;;;;;;31.30;20.08;;;17.00;70.00;;;;;;5068141;28;20040;-69
2021/08/25 06:36:33;;;;;;;30.58;18.67;;;17.00;69.70;;;;;;5069339;28;20032;-70
2021/08/25 06:39:00;;;;;;;30.75;19.38;;;17.00;69.70;;;;;;5067603;28;20032;-71
2021/08/25 06:41:27;;;;;;;31.90;19.40;;;16.90;70.30;;;;;;5069643;28;20391;-69
2021/08/25 06:43:55;;;;;;;32.83;19.42;;;17.00;69.70;;;;;;5067234;28;20021;-69
2021/08/25 06:46:22;;;;;;;29.35;18.10;;;17.00;70.20;;;;;;5051170;28;20025;-67
2021/08/25 06:48:50;;;;;;;31.50;20.05;;;17.00;70.10;;;;;;5048584;28;20040;-71
2021/08/25 06:51:18;;;;;;;25.33;15.18;;;17.00;70.20;;;;;;5048673;28;20029;-69
2021/08/25 06:53:46;;;;;;;29.83;19.38;;;17.00;68.10;;;;;;5061086;28;20382;-74
2021/08/25 06:56:13;;;;;;;32.38;21.58;;;16.90;69.60;;;;;;5068368;28;20485;-72
2021/08/25 06:58:41;;;;;;;33.22;23.02;;;16.90;70.60;;;;;;5068783;28;20028;-67
2021/08/25 07:01:08;;;;;;;34.20;20.80;;;16.90;70.70;;;;;;5069528;28;20127;-70
2021/08/25 07:03:39;;;;;;;32.85;23.55;;;16.90;69.90;;;;;;5067970;28;20060;-68
2021/08/25 07:06:06;;;;;;;33.78;24.33;;;16.90;70.70;;;;;;5069261;28;20051;-70
2021/08/25 07:08:34;;;;;;;29.10;21.50;;;16.90;71.10;;;;;;5068868;28;20595;-69
2021/08/25 07:11:01;;;;;;;27.98;19.63;;;16.90;71.50;;;;;;5067390;28;20039;-72
2021/08/25 07:13:29;;;;;;;27.38;18.98;;;16.90;71.20;;;;;;5068384;28;20024;-67
2021/08/25 07:15:56;;;;;;;27.95;20.02;;;16.90;71.60;;;;;;5068804;28;20401;-68
2021/08/25 07:18:24;;;;;;;28.38;20.33;;;16.90;71.80;;;;;;5068889;28;20032;-73
2021/08/25 07:20:51;;;;;;;25.33;19.02;;;16.90;71.90;;;;;;5069510;28;20019;-69
2021/08/25 07:23:19;;;;;;;28.55;19.83;;;16.90;72.10;;;;;;5068881;28;20035;-66
2021/08/25 07:25:46;;;;;;;27.85;19.90;;;16.90;72.60;;;;;;5068828;28;20023;-68
2021/08/25 07:28:14;;;;;;;24.17;19.60;;;16.90;72.30;;;;;;5068681;28;20420;-70
2021/08/25 07:30:41;;;;;;;30.42;22.52;;;16.90;72.00;;;;;;5068959;28;20554;-71
2021/08/25 07:33:13;;;;;;;27.63;19.83;;;16.90;72.90;;;;;;5067756;28;20359;-71
2021/08/25 07:35:45;;;;;;;31.63;22.23;;;16.90;72.90;;;;;;5073467;28;20032;-73
2021/08/25 07:38:13;;;;;;;;;;;16.80;73.30;;;;;;5064479;28;20140;-69
2021/08/25 07:40:43;;;;;;;27.75;20.45;;;16.90;73.50;;;;;;5069365;28;19912;-70
2021/08/25 07:43:11;;;;;;;27.55;19.00;;;16.90;73.30;;;;;;5071016;28;20024;-69
2021/08/25 07:45:38;;;;;;;29.30;19.73;;;16.90;73.30;;;;;;5072157;28;20386;-67
2021/08/25 07:48:06;;;;;;;23.98;19.25;;;16.90;73.80;;;;;;5071243;28;20028;-68
2021/08/25 07:50:34;;;;;;;23.52;18.45;;;16.90;73.60;;;;;;5071979;28;20024;-69
2021/08/25 07:53:01;;;;;;;23.48;19.38;;;16.90;73.70;;;;;;5067702;28;20028;-66
2021/08/25 07:55:29;;;;;;;26.35;19.23;;;16.90;73.90;;;;;;5072093;28;20087;-67
2021/08/25 07:57:56;;;;;;;23.92;18.17;;;16.90;73.70;;;;;;5069738;28;20027;-66
2021/08/25 08:00:24;;;;;;;21.05;16.50;;;16.90;73.60;;;;;;5072379;28;20451;-65
2021/08/25 08:02:51;;;;;;;21.58;17.13;;;16.90;72.90;;;;;;5066589;28;20028;-68
2021/08/25 08:05:19;;;;;;;24.23;16.52;;;16.90;73.30;;;;;;5072392;28;20080;-73
2021/08/25 08:07:47;;;;;;;24.88;17.50;;;16.90;73.20;;;;;;5070734;28;20056;-66
2021/08/25 08:10:14;;;;;;;22.27;16.63;;;16.90;73.20;;;;;;5070755;28;20043;-64
2021/08/25 08:12:42;;;;;;;21.95;15.65;;;16.90;72.80;;;;;;5067698;28;21216;-63
2021/08/25 08:15:12;;;;;;;18.60;14.95;;;16.90;72.80;;;;;;5067701;28;20047;-74
2021/08/25 08:17:44;;;;;;;20.48;14.60;;;16.90;72.50;;;;;;5067293;28;20502;-70
2021/08/25 08:20:13;;;;;;;19.60;14.85;;;16.90;73.00;;;;;;5071683;28;20059;-67
2021/08/25 08:22:41;;;;;;;17.70;14.45;;;16.90;72.60;;;;;;5067584;28;20036;-64
2021/08/25 08:25:18;;;;;;;20.13;13.95;;;16.90;72.50;;;;;;5072965;28;20040;-66
2021/08/25 08:27:46;;;;;;;18.63;13.95;;;16.90;72.80;;;;;;5068436;28;20096;-69
2021/08/25 08:30:13;;;;;;;19.27;13.60;;;16.90;72.30;;;;;;5072171;28;20046;-62
2021/08/25 08:32:41;;;;;;;18.98;14.05;;;16.90;72.40;;;;;;5067543;28;20052;-67
2021/08/25 08:35:09;;;;;;;18.23;13.80;;;16.90;72.50;;;;;;5069979;28;20033;-64
2021/08/25 08:37:37;;;;;;;16.13;12.80;;;16.90;72.40;;;;;;5074967;28;20153;-63
2021/08/25 08:40:06;;;;;;;17.67;12.93;;;16.90;72.10;;;;;;5076212;28;20024;-65
2021/08/25 08:42:35;;;;;;;17.65;12.95;;;16.80;72.20;;;;;;5072597;28;20024;-66
2021/08/25 08:45:04;;;;;;;20.58;13.27;;;16.80;72.30;;;;;;5075126;28;20348;-70
2021/08/25 08:47:36;;;;;;;16.77;12.07;;;16.80;72.30;;;;;;5072936;28;20021;-72
2021/08/25 08:50:05;;;;;;;17.25;12.13;;;16.80;72.40;;;;;;5074308;28;20036;-70
2021/08/25 08:52:32;;;;;;;14.43;11.65;;;16.80;71.60;;;;;;5070101;28;20085;-67
2021/08/25 08:55:00;;;;;;;15.27;11.35;;;16.80;72.50;;;;;;5072356;28;20024;-65
2021/08/25 08:57:39;;;;;;;15.82;11.65;;;16.80;72.10;;;;;;5074126;28;20186;-62
2021/08/25 09:00:25;;;;;;;14.63;11.40;;;16.80;72.30;;;;;;5074946;28;20099;-64
2021/08/25 09:02:52;;;;;;;16.20;10.85;;;16.80;72.20;;;;;;5068655;28;20150;-67
2021/08/25 09:05:34;;;;;;;15.05;11.20;;;16.80;72.20;;;;;;5073474;28;20025;-72
2021/08/25 09:08:04;;;;;;;16.30;11.68;;;16.80;71.70;;;;;;5070668;28;20024;-69
2021/08/25 09:10:35;;;;;;;15.50;11.82;;;16.70;72.10;;;;;;5072738;28;20113;-69
2021/08/25 09:13:12;;;;;;;14.90;10.45;;;16.70;72.00;;;;;;5068487;28;20175;-64
2021/08/25 09:15:43;;;;;;;15.15;11.15;;;16.70;72.40;;;;;;5070584;28;20051;-69
2021/08/25 09:18:20;;;;;;;22.53;13.77;;;16.70;71.80;;;;;;5075091;28;20043;-70
2021/08/25 09:21:27;;;;;;;;;;;;;;;;;;;;;
2021/08/25 09:24:08;;;;;;;;;;;;;;;;;;;;;
2021/08/25 09:27:11;;;;;;;38.10;25.13;;;16.60;72.30;;;;;;5075897;28;20028;-67
2021/08/25 09:30:06;;;;;;;40.80;26.77;;;16.70;72.20;;;;;;5075671;28;20116;-66
2021/08/25 09:32:38;;;;;;;40.50;26.65;;;16.70;72.80;;;;;;5065696;28;20053;-66
2021/08/25 09:35:08;;;;;;;46.20;29.02;;;16.70;72.90;;;;;;5074396;28;20064;-63
2021/08/25 09:37:36;;;;;;;51.83;30.35;;;16.70;72.60;;;;;;5074787;28;20036;-66
2021/08/25 09:40:16;;;;;;;52.28;32.85;;;16.70;73.00;;;;;;5074981;28;20150;-70
2021/08/25 09:42:45;;;;;;;49.40;33.42;;;16.70;72.80;;;;;;5071283;28;20037;-67
2021/08/25 09:45:37;;;;;;;49.10;34.78;;;16.70;72.90;;;;;;5076449;28;20028;-62
2021/08/25 09:48:05;;;;;;;51.78;36.10;;;16.60;72.70;;;;;;5074434;28;20016;-64
2021/08/25 09:50:33;;;;;;;53.35;34.35;;;16.60;72.60;;;;;;5075774;28;20535;-62
2021/08/25 09:53:04;;;;;;;55.13;38.25;;;16.60;72.80;;;;;;5071544;28;20033;-66
2021/08/25 09:55:33;;;;;;;56.90;37.30;;;16.60;73.10;;;;;;5074088;28;20037;-67
2021/08/25 09:58:03;;;;;;;57.38;36.75;;;16.60;73.10;;;;;;5074485;28;20107;-65
2021/08/25 10:00:31;;;;;;;65.65;40.55;;;16.60;73.10;;;;;;5074805;28;20024;-58
2021/08/25 10:02:59;;;;;;;58.53;39.10;;;16.60;73.30;;;;;;5070004;28;20036;-63
2021/08/25 10:05:28;;;;;;;60.28;39.90;;;16.60;73.20;;;;;;5073527;28;20115;-62
2021/08/25 10:07:56;;;;;;;62.90;40.65;;;16.60;73.30;;;;;;5074119;28;20043;-63
2021/08/25 10:10:24;;;;;;;59.60;41.53;;;16.60;73.40;;;;;;5073817;28;20063;-64
2021/08/25 10:12:53;;;;;;;68.70;42.10;;;16.60;73.60;;;;;;5070851;28;20029;-61
2021/08/25 10:15:34;;;;;;;67.72;44.58;;;16.50;73.50;;;;;;5074492;28;20576;-64
2021/08/25 10:18:23;;;;;;;68.53;43.97;;;16.50;73.40;;;;;;5073052;28;20024;-65
2021/08/25 10:20:52;;;;;;;72.03;45.22;;;16.50;73.40;;;;;;5073397;28;20109;-65
2021/08/25 10:23:19;;;;;;;67.03;46.35;;;16.50;73.40;;;;;;5063972;28;20048;-65
2021/08/25 10:26:10;;;;;;;66.05;46.28;;;16.50;73.50;;;;;;5073859;28;20021;-65
2021/08/25 10:28:57;;;;;;;68.75;45.08;;;16.50;73.30;;;;;;5056105;28;20100;-66
2021/08/25 10:31:25;;;;;;;68.75;45.35;;;16.50;73.30;;;;;;5069954;28;20040;-65
2021/08/25 10:34:12;;;;;;;70.55;47.78;;;16.50;73.50;;;;;;5066944;28;20115;-64
2021/08/25 10:36:40;;;;;;;68.45;43.72;;;16.50;73.20;;;;;;5072369;28;20167;-62
2021/08/25 10:39:43;;;;;;;69.57;45.45;;;16.50;72.90;;;;;;5073108;28;20420;-62
2021/08/25 10:42:10;;;;;;;64.43;44.38;;;16.50;73.50;;;;;;5051188;28;20016;-66
2021/08/25 10:44:50;;;;;;;65.07;44.17;;;16.50;72.90;;;;;;5065258;28;20040;-62
2021/08/25 10:47:56;;;;;;;67.15;42.95;;;16.40;72.80;;;;;;5073522;28;20063;-64
2021/08/25 10:50:44;;;;;;;63.58;43.33;;;16.40;72.90;;;;;;5072907;28;20144;-67
2021/08/25 10:53:37;;;;;;;69.18;45.33;;;16.40;72.50;;;;;;5065168;28;20033;-66
2021/08/25 10:56:29;;;;;;;66.70;44.05;;;16.30;73.40;;;;;;5071739;28;20036;-69
2021/08/25 10:59:00;;;;;;;61.70;41.60;;;16.30;73.10;;;;;;5072656;28;20074;-64
2021/08/25 11:01:31;;;;;;;66.72;44.95;;;16.30;73.20;;;;;;5072911;28;20490;-66
2021/08/25 11:04:02;;;;;;;65.32;44.35;;;16.30;73.40;;;;;;5067275;28;20549;-70
2021/08/25 11:07:18;;;;;;;;;;;;;;;;;;;;;
2021/08/25 11:10:28;;;;;;;67.72;42.47;;;16.20;73.60;;;;;;5068518;28;20495;-65
2021/08/25 11:13:12;;;;;;;64.32;41.97;;;16.20;73.60;;;;;;5064232;28;20036;-67
2021/08/25 11:16:22;;;;;;;;;;;;;;;;;;;;;
2021/08/25 11:18:50;;;;;;;64.13;40.08;;;16.20;73.80;;;;;;5071407;28;20386;-66
2021/08/25 11:21:21;;;;;;;63.15;41.95;;;16.20;73.80;;;;;;5072951;28;20031;-67
2021/08/25 11:23:58;;;;;;;60.70;39.63;;;16.20;73.80;;;;;;5068198;28;20112;-66
2021/08/25 11:26:34;;;;;;;66.03;42.20;;;16.20;73.60;;;;;;5073506;28;20279;-69
2021/08/25 11:29:31;;;;;;;59.15;39.80;;;16.20;73.80;;;;;;5072850;28;20020;-67
2021/08/25 11:32:03;;;;;;;59.53;40.00;;;16.20;73.70;;;;;;5069813;28;20076;-62
2021/08/25 11:34:49;;;;;;;59.72;39.55;;;16.20;73.80;;;;;;5068496;28;20075;-63
2021/08/25 11:37:20;;;;;;;56.47;38.20;;;16.20;73.70;;;;;;5069085;28;20135;-62
2021/08/25 11:39:58;;;;;;;55.97;38.72;;;16.20;73.70;;;;;;5069325;28;20025;-66
2021/08/25 11:42:38;;;;;;;54.35;37.75;;;16.20;73.60;;;;;;5065233;28;20040;-65
2021/08/25 11:45:28;;;;;;;52.45;38.05;;;16.20;73.60;;;;;;5070503;28;20356;-63
2021/08/25 11:47:58;;;;;;;51.05;35.25;;;16.10;73.70;;;;;;5071162;28;20407;-65
2021/08/25 11:50:29;;;;;;;51.97;36.13;;;16.10;73.50;;;;;;5071830;28;20028;-63
2021/08/25 11:52:57;;;;;;;54.92;38.28;;;16.20;73.50;;;;;;5064251;28;20082;-65
2021/08/25 11:55:25;;;;;;;57.65;37.22;;;16.10;73.40;;;;;;5053066;28;20085;-68
2021/08/25 11:57:57;;;;;;;54.47;36.97;;;16.10;73.60;;;;;;5054068;28;20072;-61
2021/08/25 12:00:44;;;;;;;47.88;35.15;;;16.10;73.70;;;;;;5064983;28;20044;-60
2021/08/25 12:03:12;;;;;;;59.90;36.05;;;16.00;73.60;;;;;;5047105;28;20434;-67
2021/08/25 12:05:50;;;;;;;48.20;34.47;;;16.00;73.80;;;;;;5049599;28;20017;-61
2021/08/25 12:08:18;;;;;;;50.30;33.65;;;16.00;73.80;;;;;;5067900;28;20037;-65
2021/08/25 12:11:04;;;;;;;49.28;33.47;;;16.00;73.80;;;;;;5065797;28;20021;-65
2021/08/25 12:13:39;;;;;;;51.45;33.17;;;16.00;73.70;;;;;;5067290;28;20616;-65
2021/08/25 12:16:20;;;;;;;48.90;33.80;;;15.90;73.90;;;;;;5067858;28;20052;-65
2021/08/25 12:18:49;;;;;;;49.22;31.58;;;15.90;74.40;;;;;;5068080;28;20040;-69
2021/08/25 12:21:17;;;;;;;45.33;32.35;;;15.90;73.90;;;;;;5067970;28;20024;-62
2021/08/25 12:23:58;;;;;;;43.08;30.77;;;15.90;74.00;;;;;;5067724;28;20107;-62
2021/08/25 12:26:27;;;;;;;46.95;29.90;;;15.90;74.00;;;;;;5067663;28;20013;-63
2021/08/25 12:28:55;;;;;;;43.67;30.45;;;15.80;74.00;;;;;;5068180;28;20028;-63
2021/08/25 12:31:28;;;;;;;40.53;29.23;;;15.80;74.10;;;;;;5067696;28;20040;-66
2021/08/25 12:34:16;;;;;;;41.33;27.85;;;15.80;74.10;;;;;;5068440;28;20025;-65
2021/08/25 12:37:10;;;;;;;42.80;28.95;;;15.80;74.10;;;;;;5067632;28;20502;-64
2021/08/25 12:39:58;;;;;;;36.58;27.45;;;15.70;74.10;;;;;;5051732;28;20059;-61
2021/08/25 12:42:25;;;;;;;37.63;26.55;;;15.70;74.30;;;;;;5067977;28;20089;-63
2021/08/25 12:44:53;;;;;;;43.50;29.80;;;15.70;74.30;;;;;;5066250;28;20054;-65
2021/08/25 12:47:20;;;;;;;37.15;27.05;;;15.70;74.30;;;;;;5067467;28;20055;-66
2021/08/25 12:49:48;;;;;;;42.65;26.85;;;15.60;74.20;;;;;;5067706;28;20024;-62
2021/08/25 12:52:15;;;;;;;32.45;22.58;;;15.70;74.30;;;;;;5067075;28;20029;-61
2021/08/25 12:54:42;;;;;;;38.08;24.50;;;15.60;74.20;;;;;;5067521;28;20028;-64
2021/08/25 12:57:10;;;;;;;38.35;25.67;;;15.60;74.40;;;;;;5065412;28;20498;-62
2021/08/25 12:59:37;;;;;;;36.92;25.85;;;15.60;74.30;;;;;;5067347;28;20028;-61
2021/08/25 13:02:04;;;;;;;35.85;24.17;;;15.60;74.40;;;;;;5065433;28;20028;-62